Ayacucho, Argentina
Current Conditions -  °F | °C
As of 6:00 AM on Wednesday 22 Oct 2014 (Local Time) from SAZM Reporting Station
Clear Clear  
Wind Chill: 59°   Ceiling: Unl
Heat Index: 59°   Visibility: 6mi
Dew Point: 55°   Wind: 5mph
Humidity: 88%   Direction: 320°NW
Pressure: 29.94"   Gusts: NA
Location:  37.15°S, 58.48°W
Report Text: SAZM 220900Z 32004KT CAVOK 15/13 Q1014
Loading
Personal Weather Stations






























Interactive Weather Map
Tropical Storm Tracking
New forecast layout! Learn more

10-Day Weather Forecast

Advertisements
Track Severe Weather on mobile